sensor_id;sensor_type;location;lat;lon;timestamp;P1;durP1;ratioP1;P2;durP2;ratioP2
26774;SDS011;14362;51.902;7.626;2023-07-13T00:02:31;4.45;;;2.80;;
26774;SDS011;14362;51.902;7.626;2023-07-13T00:06:34;8.85;;;3.38;;
26774;SDS011;14362;51.902;7.626;2023-07-13T00:10:38;5.57;;;3.13;;
26774;SDS011;14362;51.902;7.626;2023-07-13T00:18:42;7.15;;;3.50;;
26774;SDS011;14362;51.902;7.626;2023-07-13T00:22:44;3.95;;;3.22;;
26774;SDS011;14362;51.902;7.626;2023-07-13T00:26:47;6.37;;;3.13;;
26774;SDS011;14362;51.902;7.626;2023-07-13T00:30:48;8.82;;;3.45;;
26774;SDS011;14362;51.902;7.626;2023-07-13T00:34:50;5.72;;;2.80;;
26774;SDS011;14362;51.902;7.626;2023-07-13T00:38:53;7.05;;;3.22;;
26774;SDS011;14362;51.902;7.626;2023-07-13T00:42:56;6.55;;;2.88;;
26774;SDS011;14362;51.902;7.626;2023-07-13T00:46:59;5.88;;;2.85;;
26774;SDS011;14362;51.902;7.626;2023-07-13T00:51:00;7.13;;;3.42;;
26774;SDS011;14362;51.902;7.626;2023-07-13T00:55:05;4.38;;;2.53;;
26774;SDS011;14362;51.902;7.626;2023-07-13T00:59:07;5.07;;;2.92;;
26774;SDS011;14362;51.902;7.626;2023-07-13T01:03:11;7.53;;;3.05;;
26774;SDS011;14362;51.902;7.626;2023-07-13T01:07:13;6.15;;;2.58;;
26774;SDS011;14362;51.902;7.626;2023-07-13T01:11:19;6.13;;;3.03;;
26774;SDS011;14362;51.902;7.626;2023-07-13T01:15:39;7.15;;;3.00;;
26774;SDS011;14362;51.902;7.626;2023-07-13T01:19:43;8.63;;;3.03;;
26774;SDS011;14362;51.902;7.626;2023-07-13T01:23:47;5.53;;;2.97;;
26774;SDS011;14362;51.902;7.626;2023-07-13T01:27:48;4.57;;;2.70;;
26774;SDS011;14362;51.902;7.626;2023-07-13T01:31:49;7.55;;;2.83;;
26774;SDS011;14362;51.902;7.626;2023-07-13T01:35:51;6.22;;;2.80;;
26774;SDS011;14362;51.902;7.626;2023-07-13T01:39:54;5.00;;;3.20;;
26774;SDS011;14362;51.902;7.626;2023-07-13T01:43:55;7.03;;;3.25;;
26774;SDS011;14362;51.902;7.626;2023-07-13T01:47:57;6.78;;;3.22;;
26774;SDS011;14362;51.902;7.626;2023-07-13T01:51:58;12.23;;;3.90;;
26774;SDS011;14362;51.902;7.626;2023-07-13T01:56:01;8.95;;;3.63;;
26774;SDS011;14362;51.902;7.626;2023-07-13T02:00:03;7.25;;;3.33;;
26774;SDS011;14362;51.902;7.626;2023-07-13T02:04:06;9.57;;;3.38;;
26774;SDS011;14362;51.902;7.626;2023-07-13T02:08:07;6.72;;;3.60;;
26774;SDS011;14362;51.902;7.626;2023-07-13T02:12:10;7.28;;;3.30;;
26774;SDS011;14362;51.902;7.626;2023-07-13T02:16:12;9.18;;;3.90;;
26774;SDS011;14362;51.902;7.626;2023-07-13T02:20:13;6.13;;;2.72;;
26774;SDS011;14362;51.902;7.626;2023-07-13T02:24:14;9.57;;;3.08;;
26774;SDS011;14362;51.902;7.626;2023-07-13T02:28:19;7.72;;;3.00;;
26774;SDS011;14362;51.902;7.626;2023-07-13T02:32:20;9.00;;;3.20;;
26774;SDS011;14362;51.902;7.626;2023-07-13T02:36:22;10.15;;;3.42;;
26774;SDS011;14362;51.902;7.626;2023-07-13T02:40:23;7.70;;;3.22;;
26774;SDS011;14362;51.902;7.626;2023-07-13T02:44:26;8.30;;;2.83;;
26774;SDS011;14362;51.902;7.626;2023-07-13T02:48:27;8.73;;;3.22;;
26774;SDS011;14362;51.902;7.626;2023-07-13T02:52:29;7.40;;;3.10;;
26774;SDS011;14362;51.902;7.626;2023-07-13T02:56:31;7.53;;;2.88;;
26774;SDS011;14362;51.902;7.626;2023-07-13T03:00:37;9.20;;;2.95;;
26774;SDS011;14362;51.902;7.626;2023-07-13T03:04:41;7.50;;;2.90;;
26774;SDS011;14362;51.902;7.626;2023-07-13T03:08:43;7.10;;;2.75;;
26774;SDS011;14362;51.902;7.626;2023-07-13T03:12:45;8.95;;;3.85;;
26774;SDS011;14362;51.902;7.626;2023-07-13T03:16:48;7.63;;;3.38;;
26774;SDS011;14362;51.902;7.626;2023-07-13T03:20:52;8.20;;;3.38;;
26774;SDS011;14362;51.902;7.626;2023-07-13T03:24:57;5.45;;;2.75;;
26774;SDS011;14362;51.902;7.626;2023-07-13T03:33:01;9.20;;;3.22;;
26774;SDS011;14362;51.902;7.626;2023-07-13T03:37:03;5.28;;;2.80;;
26774;SDS011;14362;51.902;7.626;2023-07-13T03:41:05;6.53;;;2.72;;
26774;SDS011;14362;51.902;7.626;2023-07-13T03:45:07;6.05;;;2.80;;
26774;SDS011;14362;51.902;7.626;2023-07-13T03:49:10;9.30;;;3.55;;
26774;SDS011;14362;51.902;7.626;2023-07-13T03:53:12;8.40;;;2.75;;
26774;SDS011;14362;51.902;7.626;2023-07-13T03:57:14;8.68;;;3.40;;
26774;SDS011;14362;51.902;7.626;2023-07-13T04:01:16;9.35;;;3.10;;
26774;SDS011;14362;51.902;7.626;2023-07-13T04:05:19;8.13;;;3.10;;
26774;SDS011;14362;51.902;7.626;2023-07-13T04:09:21;4.93;;;2.83;;
26774;SDS011;14362;51.902;7.626;2023-07-13T04:13:23;9.40;;;2.85;;
26774;SDS011;14362;51.902;7.626;2023-07-13T04:17:25;7.55;;;3.00;;
26774;SDS011;14362;51.902;7.626;2023-07-13T04:21:28;10.90;;;3.28;;
26774;SDS011;14362;51.902;7.626;2023-07-13T04:25:31;10.45;;;3.88;;
26774;SDS011;14362;51.902;7.626;2023-07-13T04:29:32;7.55;;;2.80;;
26774;SDS011;14362;51.902;7.626;2023-07-13T04:33:34;10.73;;;2.90;;
26774;SDS011;14362;51.902;7.626;2023-07-13T04:37:37;4.57;;;2.70;;
26774;SDS011;14362;51.902;7.626;2023-07-13T04:41:38;6.43;;;3.05;;
26774;SDS011;14362;51.902;7.626;2023-07-13T04:45:40;4.57;;;2.88;;
26774;SDS011;14362;51.902;7.626;2023-07-13T04:49:42;7.32;;;2.65;;
26774;SDS011;14362;51.902;7.626;2023-07-13T04:53:45;6.68;;;2.35;;
26774;SDS011;14362;51.902;7.626;2023-07-13T04:57:46;6.28;;;2.67;;
26774;SDS011;14362;51.902;7.626;2023-07-13T05:01:48;6.32;;;3.13;;
26774;SDS011;14362;51.902;7.626;2023-07-13T05:05:56;11.90;;;2.90;;
26774;SDS011;14362;51.902;7.626;2023-07-13T05:10:00;10.07;;;2.92;;
26774;SDS011;14362;51.902;7.626;2023-07-13T05:14:01;6.22;;;2.85;;
26774;SDS011;14362;51.902;7.626;2023-07-13T05:18:03;10.98;;;2.85;;
26774;SDS011;14362;51.902;7.626;2023-07-13T05:22:04;6.10;;;2.65;;
26774;SDS011;14362;51.902;7.626;2023-07-13T05:26:07;7.55;;;2.60;;
26774;SDS011;14362;51.902;7.626;2023-07-13T05:30:09;5.78;;;2.67;;
26774;SDS011;14362;51.902;7.626;2023-07-13T05:34:11;5.90;;;2.85;;
26774;SDS011;14362;51.902;7.626;2023-07-13T05:38:13;6.28;;;2.92;;
26774;SDS011;14362;51.902;7.626;2023-07-13T05:42:16;8.98;;;2.72;;
26774;SDS011;14362;51.902;7.626;2023-07-13T05:46:17;7.88;;;2.67;;
26774;SDS011;14362;51.902;7.626;2023-07-13T05:50:19;6.97;;;3.28;;
26774;SDS011;14362;51.902;7.626;2023-07-13T05:54:21;6.50;;;2.50;;
26774;SDS011;14362;51.902;7.626;2023-07-13T05:58:23;7.30;;;2.58;;
26774;SDS011;14362;51.902;7.626;2023-07-13T06:02:25;11.20;;;2.85;;
26774;SDS011;14362;51.902;7.626;2023-07-13T06:06:27;7.28;;;2.80;;
26774;SDS011;14362;51.902;7.626;2023-07-13T06:10:28;8.70;;;3.10;;
26774;SDS011;14362;51.902;7.626;2023-07-13T06:14:31;6.68;;;3.10;;
26774;SDS011;14362;51.902;7.626;2023-07-13T06:18:33;7.75;;;2.88;;
26774;SDS011;14362;51.902;7.626;2023-07-13T06:22:37;7.05;;;3.30;;
26774;SDS011;14362;51.902;7.626;2023-07-13T06:26:38;7.63;;;2.63;;
26774;SDS011;14362;51.902;7.626;2023-07-13T06:30:41;9.48;;;3.72;;
26774;SDS011;14362;51.902;7.626;2023-07-13T06:34:42;7.32;;;3.13;;
26774;SDS011;14362;51.902;7.626;2023-07-13T06:38:44;8.07;;;3.42;;
26774;SDS011;14362;51.902;7.626;2023-07-13T06:42:45;12.88;;;3.72;;
26774;SDS011;14362;51.902;7.626;2023-07-13T06:46:48;10.15;;;3.40;;
26774;SDS011;14362;51.902;7.626;2023-07-13T06:50:50;10.60;;;3.60;;
26774;SDS011;14362;51.902;7.626;2023-07-13T06:54:53;7.88;;;3.20;;
26774;SDS011;14362;51.902;7.626;2023-07-13T06:58:54;8.00;;;3.15;;
26774;SDS011;14362;51.902;7.626;2023-07-13T07:02:57;10.55;;;3.35;;
26774;SDS011;14362;51.902;7.626;2023-07-13T07:06:58;6.10;;;3.10;;
26774;SDS011;14362;51.902;7.626;2023-07-13T07:11:00;9.05;;;3.15;;
26774;SDS011;14362;51.902;7.626;2023-07-13T07:15:01;9.77;;;3.30;;
26774;SDS011;14362;51.902;7.626;2023-07-13T07:19:04;9.90;;;2.67;;
26774;SDS011;14362;51.902;7.626;2023-07-13T07:23:05;7.38;;;2.65;;
26774;SDS011;14362;51.902;7.626;2023-07-13T07:27:07;8.52;;;2.90;;
26774;SDS011;14362;51.902;7.626;2023-07-13T07:31:08;8.43;;;2.90;;
26774;SDS011;14362;51.902;7.626;2023-07-13T07:35:11;7.22;;;2.65;;
26774;SDS011;14362;51.902;7.626;2023-07-13T07:39:13;7.82;;;3.17;;
26774;SDS011;14362;51.902;7.626;2023-07-13T07:43:14;7.72;;;3.28;;
26774;SDS011;14362;51.902;7.626;2023-07-13T07:47:16;7.55;;;2.63;;
26774;SDS011;14362;51.902;7.626;2023-07-13T07:51:19;8.48;;;2.80;;
26774;SDS011;14362;51.902;7.626;2023-07-13T07:55:20;6.65;;;2.83;;
26774;SDS011;14362;51.902;7.626;2023-07-13T07:59:21;6.22;;;2.15;;
26774;SDS011;14362;51.902;7.626;2023-07-13T08:03:23;11.13;;;3.83;;
26774;SDS011;14362;51.902;7.626;2023-07-13T08:07:26;7.32;;;2.90;;
26774;SDS011;14362;51.902;7.626;2023-07-13T08:11:27;6.82;;;2.92;;
26774;SDS011;14362;51.902;7.626;2023-07-13T08:15:29;6.40;;;3.40;;
26774;SDS011;14362;51.902;7.626;2023-07-13T08:19:30;10.23;;;3.45;;
26774;SDS011;14362;51.902;7.626;2023-07-13T08:23:33;6.50;;;3.30;;
26774;SDS011;14362;51.902;7.626;2023-07-13T08:27:34;7.82;;;3.60;;
26774;SDS011;14362;51.902;7.626;2023-07-13T08:31:36;5.78;;;3.45;;
26774;SDS011;14362;51.902;7.626;2023-07-13T08:35:37;8.98;;;3.60;;
26774;SDS011;14362;51.902;7.626;2023-07-13T08:39:40;8.82;;;3.60;;
26774;SDS011;14362;51.902;7.626;2023-07-13T08:43:42;11.32;;;4.05;;
26774;SDS011;14362;51.902;7.626;2023-07-13T08:47:50;9.55;;;3.67;;
26774;SDS011;14362;51.902;7.626;2023-07-13T08:51:56;8.60;;;4.32;;
26774;SDS011;14362;51.902;7.626;2023-07-13T08:56:03;8.93;;;3.40;;
26774;SDS011;14362;51.902;7.626;2023-07-13T09:00:11;6.20;;;3.28;;
26774;SDS011;14362;51.902;7.626;2023-07-13T09:04:16;10.38;;;3.63;;
26774;SDS011;14362;51.902;7.626;2023-07-13T09:08:34;9.45;;;3.38;;
26774;SDS011;14362;51.902;7.626;2023-07-13T09:12:50;10.00;;;3.28;;
26774;SDS011;14362;51.902;7.626;2023-07-13T09:21:04;9.82;;;3.45;;
26774;SDS011;14362;51.902;7.626;2023-07-13T09:25:18;8.00;;;3.75;;
26774;SDS011;14362;51.902;7.626;2023-07-13T09:29:28;7.63;;;3.70;;
26774;SDS011;14362;51.902;7.626;2023-07-13T09:33:33;10.88;;;3.50;;
26774;SDS011;14362;51.902;7.626;2023-07-13T09:37:35;7.43;;;3.35;;
26774;SDS011;14362;51.902;7.626;2023-07-13T09:41:37;8.50;;;3.47;;
26774;SDS011;14362;51.902;7.626;2023-07-13T09:45:46;10.48;;;3.72;;
26774;SDS011;14362;51.902;7.626;2023-07-13T09:49:48;9.82;;;3.90;;
26774;SDS011;14362;51.902;7.626;2023-07-13T09:53:55;10.10;;;5.47;;
26774;SDS011;14362;51.902;7.626;2023-07-13T09:57:57;7.68;;;4.20;;
26774;SDS011;14362;51.902;7.626;2023-07-13T10:02:00;5.65;;;4.93;;
26774;SDS011;14362;51.902;7.626;2023-07-13T10:06:09;7.10;;;5.40;;
26774;SDS011;14362;51.902;7.626;2023-07-13T10:10:14;10.85;;;6.30;;
26774;SDS011;14362;51.902;7.626;2023-07-13T10:14:18;7.10;;;5.80;;
26774;SDS011;14362;51.902;7.626;2023-07-13T10:18:26;8.48;;;5.47;;
26774;SDS011;14362;51.902;7.626;2023-07-13T10:22:35;6.63;;;5.20;;
26774;SDS011;14362;51.902;7.626;2023-07-13T10:26:42;7.53;;;5.07;;
26774;SDS011;14362;51.902;7.626;2023-07-13T10:30:49;7.90;;;4.30;;
26774;SDS011;14362;51.902;7.626;2023-07-13T10:34:53;8.50;;;4.70;;
26774;SDS011;14362;51.902;7.626;2023-07-13T10:38:58;5.95;;;4.45;;
26774;SDS011;14362;51.902;7.626;2023-07-13T10:43:04;6.30;;;4.47;;
26774;SDS011;14362;51.902;7.626;2023-07-13T10:47:13;9.25;;;4.82;;
26774;SDS011;14362;51.902;7.626;2023-07-13T10:51:19;8.98;;;4.70;;
26774;SDS011;14362;51.902;7.626;2023-07-13T10:55:35;8.43;;;4.35;;
26774;SDS011;14362;51.902;7.626;2023-07-13T10:59:39;5.75;;;2.67;;
26774;SDS011;14362;51.902;7.626;2023-07-13T11:03:46;6.95;;;3.22;;
26774;SDS011;14362;51.902;7.626;2023-07-13T11:07:56;10.18;;;3.45;;
26774;SDS011;14362;51.902;7.626;2023-07-13T11:12:09;5.85;;;2.75;;
26774;SDS011;14362;51.902;7.626;2023-07-13T11:16:34;5.85;;;2.60;;
26774;SDS011;14362;51.902;7.626;2023-07-13T11:20:48;3.60;;;2.35;;
26774;SDS011;14362;51.902;7.626;2023-07-13T11:24:52;4.90;;;2.60;;
26774;SDS011;14362;51.902;7.626;2023-07-13T11:28:58;6.53;;;2.72;;
26774;SDS011;14362;51.902;7.626;2023-07-13T11:33:10;3.90;;;2.40;;
26774;SDS011;14362;51.902;7.626;2023-07-13T11:37:15;4.93;;;2.38;;
26774;SDS011;14362;51.902;7.626;2023-07-13T11:41:21;6.22;;;2.45;;
26774;SDS011;14362;51.902;7.626;2023-07-13T11:45:25;3.75;;;1.90;;
26774;SDS011;14362;51.902;7.626;2023-07-13T11:49:29;6.32;;;2.45;;
26774;SDS011;14362;51.902;7.626;2023-07-13T11:57:39;5.07;;;2.17;;
26774;SDS011;14362;51.902;7.626;2023-07-13T12:01:46;5.82;;;2.25;;
26774;SDS011;14362;51.902;7.626;2023-07-13T12:05:59;4.68;;;1.80;;
26774;SDS011;14362;51.902;7.626;2023-07-13T12:10:02;6.50;;;2.15;;
26774;SDS011;14362;51.902;7.626;2023-07-13T12:14:05;6.00;;;2.10;;
26774;SDS011;14362;51.902;7.626;2023-07-13T12:18:11;3.75;;;2.08;;
26774;SDS011;14362;51.902;7.626;2023-07-13T12:22:14;4.38;;;2.10;;
26774;SDS011;14362;51.902;7.626;2023-07-13T12:26:18;5.60;;;2.20;;
26774;SDS011;14362;51.902;7.626;2023-07-13T12:30:26;4.85;;;2.10;;
26774;SDS011;14362;51.902;7.626;2023-07-13T12:34:30;3.08;;;1.95;;
26774;SDS011;14362;51.902;7.626;2023-07-13T12:38:32;4.70;;;2.28;;
26774;SDS011;14362;51.902;7.626;2023-07-13T12:42:34;4.38;;;2.13;;
26774;SDS011;14362;51.902;7.626;2023-07-13T12:46:50;5.95;;;2.17;;
26774;SDS011;14362;51.902;7.626;2023-07-13T12:50:54;5.60;;;2.22;;
26774;SDS011;14362;51.902;7.626;2023-07-13T12:54:58;7.27;;;2.53;;
26774;SDS011;14362;51.902;7.626;2023-07-13T12:59:04;6.18;;;2.67;;
26774;SDS011;14362;51.902;7.626;2023-07-13T13:03:11;5.45;;;2.58;;
26774;SDS011;14362;51.902;7.626;2023-07-13T13:07:22;2.75;;;1.80;;
26774;SDS011;14362;51.902;7.626;2023-07-13T13:11:26;6.30;;;2.05;;
26774;SDS011;14362;51.902;7.626;2023-07-13T13:15:28;3.30;;;2.10;;
26774;SDS011;14362;51.902;7.626;2023-07-13T13:19:32;5.53;;;2.42;;
26774;SDS011;14362;51.902;7.626;2023-07-13T13:23:33;5.57;;;2.20;;
26774;SDS011;14362;51.902;7.626;2023-07-13T13:27:34;9.63;;;2.83;;
26774;SDS011;14362;51.902;7.626;2023-07-13T13:31:36;3.13;;;2.00;;
26774;SDS011;14362;51.902;7.626;2023-07-13T13:35:40;2.83;;;2.10;;
26774;SDS011;14362;51.902;7.626;2023-07-13T13:39:43;4.75;;;2.05;;
26774;SDS011;14362;51.902;7.626;2023-07-13T13:43:45;2.40;;;1.95;;
26774;SDS011;14362;51.902;7.626;2023-07-13T13:47:49;4.05;;;2.60;;
26774;SDS011;14362;51.902;7.626;2023-07-13T13:51:52;5.95;;;2.78;;
26774;SDS011;14362;51.902;7.626;2023-07-13T13:55:55;4.80;;;2.73;;
26774;SDS011;14362;51.902;7.626;2023-07-13T13:59:56;3.25;;;2.50;;
26774;SDS011;14362;51.902;7.626;2023-07-13T14:03:58;3.50;;;2.42;;
26774;SDS011;14362;51.902;7.626;2023-07-13T14:08:01;2.45;;;2.00;;
26774;SDS011;14362;51.902;7.626;2023-07-13T14:12:03;3.47;;;2.05;;
26774;SDS011;14362;51.902;7.626;2023-07-13T14:20:12;3.45;;;2.33;;
26774;SDS011;14362;51.902;7.626;2023-07-13T14:24:17;3.07;;;1.77;;
26774;SDS011;14362;51.902;7.626;2023-07-13T14:28:19;3.40;;;2.60;;
26774;SDS011;14362;51.902;7.626;2023-07-13T14:32:24;3.55;;;1.80;;
26774;SDS011;14362;51.902;7.626;2023-07-13T14:36:27;4.28;;;1.65;;
26774;SDS011;14362;51.902;7.626;2023-07-13T14:40:31;3.58;;;1.85;;
26774;SDS011;14362;51.902;7.626;2023-07-13T14:44:33;2.60;;;1.90;;
26774;SDS011;14362;51.902;7.626;2023-07-13T14:48:34;2.78;;;2.17;;
26774;SDS011;14362;51.902;7.626;2023-07-13T14:52:36;2.75;;;2.05;;
26774;SDS011;14362;51.902;7.626;2023-07-13T14:56:39;1.80;;;1.70;;
26774;SDS011;14362;51.902;7.626;2023-07-13T15:00:41;1.40;;;1.30;;
26774;SDS011;14362;51.902;7.626;2023-07-13T15:04:42;3.38;;;1.80;;
26774;SDS011;14362;51.902;7.626;2023-07-13T15:08:44;4.93;;;1.67;;
26774;SDS011;14362;51.902;7.626;2023-07-13T15:12:48;2.30;;;1.80;;
26774;SDS011;14362;51.902;7.626;2023-07-13T15:16:50;2.20;;;1.52;;
26774;SDS011;14362;51.902;7.626;2023-07-13T15:20:54;2.13;;;1.88;;
26774;SDS011;14362;51.902;7.626;2023-07-13T15:24:57;1.70;;;1.60;;
26774;SDS011;14362;51.902;7.626;2023-07-13T15:29:01;2.30;;;2.10;;
26774;SDS011;14362;51.902;7.626;2023-07-13T15:33:06;2.28;;;2.08;;
26774;SDS011;14362;51.902;7.626;2023-07-13T15:37:13;3.38;;;2.47;;
26774;SDS011;14362;51.902;7.626;2023-07-13T15:41:16;3.25;;;2.35;;
26774;SDS011;14362;51.902;7.626;2023-07-13T15:45:23;4.53;;;2.13;;
26774;SDS011;14362;51.902;7.626;2023-07-13T15:49:25;4.60;;;2.33;;
26774;SDS011;14362;51.902;7.626;2023-07-13T15:53:28;4.00;;;2.95;;
26774;SDS011;14362;51.902;7.626;2023-07-13T15:57:32;4.43;;;2.63;;
26774;SDS011;14362;51.902;7.626;2023-07-13T16:01:35;3.75;;;2.60;;
26774;SDS011;14362;51.902;7.626;2023-07-13T16:05:37;3.80;;;2.30;;
26774;SDS011;14362;51.902;7.626;2023-07-13T16:09:41;3.97;;;2.70;;
26774;SDS011;14362;51.902;7.626;2023-07-13T16:13:43;5.50;;;2.67;;
26774;SDS011;14362;51.902;7.626;2023-07-13T16:17:47;4.53;;;2.47;;
26774;SDS011;14362;51.902;7.626;2023-07-13T16:21:49;3.67;;;2.50;;
26774;SDS011;14362;51.902;7.626;2023-07-13T16:25:52;5.07;;;2.30;;
26774;SDS011;14362;51.902;7.626;2023-07-13T16:29:53;4.22;;;2.65;;
26774;SDS011;14362;51.902;7.626;2023-07-13T16:33:56;4.20;;;2.53;;
26774;SDS011;14362;51.902;7.626;2023-07-13T16:37:58;4.25;;;2.55;;
26774;SDS011;14362;51.902;7.626;2023-07-13T16:42:01;4.00;;;2.47;;
26774;SDS011;14362;51.902;7.626;2023-07-13T16:46:03;3.55;;;2.30;;
26774;SDS011;14362;51.902;7.626;2023-07-13T16:50:10;3.63;;;2.70;;
26774;SDS011;14362;51.902;7.626;2023-07-13T16:54:15;5.40;;;3.08;;
26774;SDS011;14362;51.902;7.626;2023-07-13T16:58:18;6.78;;;3.63;;
26774;SDS011;14362;51.902;7.626;2023-07-13T17:02:31;4.43;;;3.10;;
26774;SDS011;14362;51.902;7.626;2023-07-13T17:06:36;4.03;;;3.00;;
26774;SDS011;14362;51.902;7.626;2023-07-13T17:10:38;4.68;;;3.20;;
26774;SDS011;14362;51.902;7.626;2023-07-13T17:14:42;7.03;;;3.50;;
26774;SDS011;14362;51.902;7.626;2023-07-13T17:18:43;4.75;;;3.20;;
26774;SDS011;14362;51.902;7.626;2023-07-13T17:22:46;4.13;;;3.00;;
26774;SDS011;14362;51.902;7.626;2023-07-13T17:26:47;5.15;;;3.70;;
26774;SDS011;14362;51.902;7.626;2023-07-13T17:30:51;4.95;;;3.47;;
26774;SDS011;14362;51.902;7.626;2023-07-13T17:34:55;6.18;;;3.92;;
26774;SDS011;14362;51.902;7.626;2023-07-13T17:38:57;6.20;;;4.40;;
26774;SDS011;14362;51.902;7.626;2023-07-13T17:42:59;4.78;;;3.63;;
26774;SDS011;14362;51.902;7.626;2023-07-13T17:47:00;5.85;;;3.90;;
26774;SDS011;14362;51.902;7.626;2023-07-13T17:51:06;5.20;;;3.78;;
26774;SDS011;14362;51.902;7.626;2023-07-13T17:55:15;6.22;;;3.50;;
26774;SDS011;14362;51.902;7.626;2023-07-13T17:59:19;4.10;;;3.00;;
26774;SDS011;14362;51.902;7.626;2023-07-13T18:03:23;6.00;;;3.90;;
26774;SDS011;14362;51.902;7.626;2023-07-13T18:07:31;4.13;;;3.58;;
26774;SDS011;14362;51.902;7.626;2023-07-13T18:11:34;6.95;;;4.30;;
26774;SDS011;14362;51.902;7.626;2023-07-13T18:15:37;5.22;;;3.50;;
26774;SDS011;14362;51.902;7.626;2023-07-13T18:19:40;6.18;;;3.70;;
26774;SDS011;14362;51.902;7.626;2023-07-13T18:23:43;4.18;;;3.30;;
26774;SDS011;14362;51.902;7.626;2023-07-13T18:27:46;5.85;;;4.10;;
26774;SDS011;14362;51.902;7.626;2023-07-13T18:31:48;5.25;;;3.90;;
26774;SDS011;14362;51.902;7.626;2023-07-13T18:35:50;7.00;;;4.50;;
26774;SDS011;14362;51.902;7.626;2023-07-13T18:39:52;5.07;;;4.57;;
26774;SDS011;14362;51.902;7.626;2023-07-13T18:43:55;7.20;;;5.00;;
26774;SDS011;14362;51.902;7.626;2023-07-13T18:47:56;9.48;;;5.10;;
26774;SDS011;14362;51.902;7.626;2023-07-13T18:51:58;6.55;;;4.68;;
26774;SDS011;14362;51.902;7.626;2023-07-13T18:56:00;6.18;;;4.80;;
26774;SDS011;14362;51.902;7.626;2023-07-13T19:00:03;6.15;;;5.18;;
26774;SDS011;14362;51.902;7.626;2023-07-13T19:04:12;8.17;;;4.77;;
26774;SDS011;14362;51.902;7.626;2023-07-13T19:08:30;5.93;;;5.05;;
26774;SDS011;14362;51.902;7.626;2023-07-13T19:12:31;8.38;;;5.93;;
26774;SDS011;14362;51.902;7.626;2023-07-13T19:16:34;7.70;;;5.28;;
26774;SDS011;14362;51.902;7.626;2023-07-13T19:20:36;6.68;;;5.60;;
26774;SDS011;14362;51.902;7.626;2023-07-13T19:24:37;7.00;;;5.30;;
26774;SDS011;14362;51.902;7.626;2023-07-13T19:28:40;8.15;;;5.30;;
26774;SDS011;14362;51.902;7.626;2023-07-13T19:32:44;6.55;;;4.85;;
26774;SDS011;14362;51.902;7.626;2023-07-13T19:36:46;6.38;;;4.63;;
26774;SDS011;14362;51.902;7.626;2023-07-13T19:40:49;6.63;;;4.38;;
26774;SDS011;14362;51.902;7.626;2023-07-13T19:44:54;6.10;;;4.40;;
26774;SDS011;14362;51.902;7.626;2023-07-13T19:48:58;5.32;;;4.38;;
26774;SDS011;14362;51.902;7.626;2023-07-13T19:52:59;7.30;;;4.30;;
26774;SDS011;14362;51.902;7.626;2023-07-13T19:57:01;5.38;;;4.07;;
26774;SDS011;14362;51.902;7.626;2023-07-13T20:01:03;6.05;;;4.50;;
26774;SDS011;14362;51.902;7.626;2023-07-13T20:05:06;8.07;;;4.53;;
26774;SDS011;14362;51.902;7.626;2023-07-13T20:09:11;7.07;;;4.70;;
26774;SDS011;14362;51.902;7.626;2023-07-13T20:13:16;12.20;;;4.80;;
26774;SDS011;14362;51.902;7.626;2023-07-13T20:17:23;7.88;;;4.55;;
26774;SDS011;14362;51.902;7.626;2023-07-13T20:21:32;7.82;;;4.85;;
26774;SDS011;14362;51.902;7.626;2023-07-13T20:25:33;6.53;;;4.72;;
26774;SDS011;14362;51.902;7.626;2023-07-13T20:29:35;6.22;;;4.78;;
26774;SDS011;14362;51.902;7.626;2023-07-13T20:33:36;5.55;;;4.85;;
26774;SDS011;14362;51.902;7.626;2023-07-13T20:37:39;4.80;;;4.30;;
26774;SDS011;14362;51.902;7.626;2023-07-13T20:41:42;7.13;;;5.25;;
26774;SDS011;14362;51.902;7.626;2023-07-13T20:45:43;8.95;;;5.30;;
26774;SDS011;14362;51.902;7.626;2023-07-13T20:49:47;9.73;;;6.00;;
26774;SDS011;14362;51.902;7.626;2023-07-13T20:53:54;9.15;;;6.15;;
26774;SDS011;14362;51.902;7.626;2023-07-13T20:57:56;8.65;;;5.80;;
26774;SDS011;14362;51.902;7.626;2023-07-13T21:01:58;8.45;;;6.32;;
26774;SDS011;14362;51.902;7.626;2023-07-13T21:06:05;8.00;;;5.80;;
26774;SDS011;14362;51.902;7.626;2023-07-13T21:14:22;10.68;;;7.35;;
26774;SDS011;14362;51.902;7.626;2023-07-13T21:18:25;10.18;;;7.13;;
26774;SDS011;14362;51.902;7.626;2023-07-13T21:22:26;11.38;;;6.95;;
26774;SDS011;14362;51.902;7.626;2023-07-13T21:26:29;11.50;;;7.20;;
26774;SDS011;14362;51.902;7.626;2023-07-13T21:30:32;8.40;;;6.60;;
26774;SDS011;14362;51.902;7.626;2023-07-13T21:34:37;13.60;;;7.50;;
26774;SDS011;14362;51.902;7.626;2023-07-13T21:38:39;11.85;;;8.00;;
26774;SDS011;14362;51.902;7.626;2023-07-13T21:42:44;9.93;;;7.60;;
26774;SDS011;14362;51.902;7.626;2023-07-13T21:46:46;10.57;;;7.50;;
26774;SDS011;14362;51.902;7.626;2023-07-13T21:50:49;9.68;;;7.50;;
26774;SDS011;14362;51.902;7.626;2023-07-13T21:54:52;9.05;;;7.25;;
26774;SDS011;14362;51.902;7.626;2023-07-13T21:58:56;10.07;;;8.00;;
26774;SDS011;14362;51.902;7.626;2023-07-13T22:02:57;12.10;;;8.50;;
26774;SDS011;14362;51.902;7.626;2023-07-13T22:07:00;9.07;;;8.00;;
26774;SDS011;14362;51.902;7.626;2023-07-13T22:11:07;9.20;;;8.20;;
26774;SDS011;14362;51.902;7.626;2023-07-13T22:15:12;9.20;;;8.27;;
26774;SDS011;14362;51.902;7.626;2023-07-13T22:19:14;8.38;;;7.55;;
26774;SDS011;14362;51.902;7.626;2023-07-13T22:23:17;9.70;;;7.47;;
26774;SDS011;14362;51.902;7.626;2023-07-13T22:27:21;10.38;;;7.13;;
26774;SDS011;14362;51.902;7.626;2023-07-13T22:31:24;11.48;;;7.97;;
26774;SDS011;14362;51.902;7.626;2023-07-13T22:35:28;8.43;;;7.22;;
26774;SDS011;14362;51.902;7.626;2023-07-13T22:39:31;13.13;;;8.48;;
26774;SDS011;14362;51.902;7.626;2023-07-13T22:43:33;10.38;;;7.57;;
26774;SDS011;14362;51.902;7.626;2023-07-13T22:47:36;12.68;;;7.90;;
26774;SDS011;14362;51.902;7.626;2023-07-13T22:51:39;8.67;;;7.77;;
26774;SDS011;14362;51.902;7.626;2023-07-13T22:55:41;8.52;;;7.57;;
26774;SDS011;14362;51.902;7.626;2023-07-13T22:59:42;14.15;;;7.75;;
26774;SDS011;14362;51.902;7.626;2023-07-13T23:03:45;8.73;;;7.15;;
26774;SDS011;14362;51.902;7.626;2023-07-13T23:07:47;8.97;;;7.30;;
26774;SDS011;14362;51.902;7.626;2023-07-13T23:11:50;9.77;;;7.95;;
26774;SDS011;14362;51.902;7.626;2023-07-13T23:15:52;10.15;;;8.00;;
26774;SDS011;14362;51.902;7.626;2023-07-13T23:19:55;12.35;;;8.73;;
26774;SDS011;14362;51.902;7.626;2023-07-13T23:23:57;10.77;;;7.78;;
26774;SDS011;14362;51.902;7.626;2023-07-13T23:27:59;11.55;;;7.25;;
26774;SDS011;14362;51.902;7.626;2023-07-13T23:32:01;9.05;;;7.68;;
26774;SDS011;14362;51.902;7.626;2023-07-13T23:36:08;8.60;;;7.47;;
26774;SDS011;14362;51.902;7.626;2023-07-13T23:40:15;10.02;;;7.38;;
26774;SDS011;14362;51.902;7.626;2023-07-13T23:44:18;10.50;;;7.50;;
26774;SDS011;14362;51.902;7.626;2023-07-13T23:48:20;9.18;;;6.68;;
26774;SDS011;14362;51.902;7.626;2023-07-13T23:52:22;10.15;;;7.90;;
26774;SDS011;14362;51.902;7.626;2023-07-13T23:56:24;8.48;;;7.20;;
